Time;durP1;ratioP1;P1;durP2;ratioP2;P2;SDS_P1;SDS_P2;PMS_P1;PMS_P2;Temp;Humidity;BMP_temperature;BMP_pressure;BME280_temperature;BME280_humidity;BME280_pressure;Samples;Min_cycle;Max_cycle;Signal;HPM_P1;HPM_P2
2022/11/19 00:00:46;;;;;;;;;;;;;;;;;;5033279;28;19924;-61
2022/11/19 00:03:13;;;;;;;;;;;;;;;;;;5035987;28;20524;-63
2022/11/19 00:05:41;;;;;;;;;;;;;;;;;;5052020;28;19920;-61
2022/11/19 00:08:07;;;;;;;;;;;;;;;;;;5051704;28;20088;-62
2022/11/19 00:10:35;;;;;;;;;;;;;;;;;;5035237;28;19974;-62
2022/11/19 00:13:00;;;;;;;;;;;;;;;;;;5033080;28;19973;-62
2022/11/19 00:15:26;;;;;;;;;;;;;;;;;;5053999;28;20334;-61
2022/11/19 00:17:53;;;;;;;;;;;;;;;;;;5035399;28;19943;-61
2022/11/19 00:20:21;;;;;;;;;;;;;;;;;;5035660;28;20453;-64
2022/11/19 00:22:46;;;;;;;;;;;;;;;;;;5033863;28;20093;-63
2022/11/19 00:25:12;;;;;;;;;;;;;;;;;;5050431;28;19921;-64
2022/11/19 00:27:40;;;;;;;;;;;;;;;;;;5034059;28;20355;-62
2022/11/19 00:30:06;;;;;;;;;;;;;;;;;;5019704;28;19921;-63
2022/11/19 00:32:34;;;;;;;;;;;;;;;;;;5017076;28;19920;-63
2022/11/19 00:34:59;;;;;;;;;;;;;;;;;;5051707;28;19921;-63
2022/11/19 00:37:27;;;;;;;;;;;;;;;;;;5026393;28;20319;-62
2022/11/19 00:39:55;;;;;;;;;;;;;;;;;;5019061;28;20615;-62
2022/11/19 00:42:23;;;;;;;;;;;;;;;;;;5055247;28;19921;-62
2022/11/19 00:44:51;;;;;;;;;;;;;;;;;;5033108;28;19925;-63
2022/11/19 00:47:18;;;;;;;;;;;;;;;;;;5024004;28;20465;-62
2022/11/19 00:49:46;;;;;;;;;;;;;;;;;;5041286;28;19928;-62
2022/11/19 00:52:11;;;;;;;;;;;;;;;;;;5032964;28;19924;-61
2022/11/19 00:54:36;;;;;;;;;;;;;;;;;;5052327;28;19917;-63
2022/11/19 00:57:05;;;;;;;;;;;;;;;;;;5032911;28;20191;-62
2022/11/19 00:59:30;;;;;;;;;;;;;;;;;;5056492;28;20220;-65
2022/11/19 01:01:55;;;;;;;;;;;;;;;;;;5058020;28;19984;-63
2022/11/19 01:04:21;;;;;;;;;;;;;;;;;;5038804;28;20039;-61
2022/11/19 01:06:49;;;;;;;;;;;;;;;;;;5056550;28;19985;-63
2022/11/19 01:09:14;;;;;;;;;;;;;;;;;;5027823;28;20303;-63
2022/11/19 01:11:39;;;;;;;;;;;;;;;;;;5025235;28;19959;-63
2022/11/19 01:14:04;;;;;;;;;;;;;;;;;;5058683;28;20474;-64
2022/11/19 01:16:30;;;;;;;;;;;;;;;;;;5055182;28;20011;-62
2022/11/19 01:18:55;;;;;;;;;;;;;;;;;;5058587;28;19951;-64
2022/11/19 01:21:21;;;;;;;;;;;;;;;;;;5055571;28;20032;-62
2022/11/19 01:23:48;;;;;;;;;;;;;;;;;;5046061;28;20534;-61
2022/11/19 01:26:18;;;;;;;;;;;;;;;;;;5053692;28;19977;-62
2022/11/19 01:28:44;;;;;;;;;;;;;;;;;;5035916;28;19958;-62
2022/11/19 01:31:09;;;;;;;;;;;;;;;;;;5039398;28;19924;-60
2022/11/19 01:33:34;;;;;;;;;;;;;;;;;;5036130;28;19919;-60
2022/11/19 01:35:59;;;;;;;;;;;;;;;;;;5038985;28;19969;-62
2022/11/19 01:38:27;;;;;;;;;;;;;;;;;;5037386;28;20223;-62
2022/11/19 01:40:53;;;;;;;;;;;;;;;;;;5046503;28;20652;-62
2022/11/19 01:43:18;;;;;;;;;;;;;;;;;;5038497;28;20237;-62
2022/11/19 01:45:47;;;;;;;;;;;;;;;;;;5038591;28;20047;-61
2022/11/19 01:48:14;;;;;;;;;;;;;;;;;;5026014;28;19927;-62
2022/11/19 01:50:40;;;;;;;;;;;;;;;;;;5037314;28;20366;-65
2022/11/19 01:53:07;;;;;;;;;;;;;;;;;;5055400;28;19920;-67
2022/11/19 01:55:32;;;;;;;;;;;;;;;;;;5037346;28;20054;-60
2022/11/19 01:57:58;;;;;;;;;;;;;;;;;;5054309;28;19923;-62
2022/11/19 02:00:26;;;;;;;;;;;;;;;;;;5035542;28;20002;-61
2022/11/19 02:02:51;;;;;;;;;;;;;;;;;;5022795;28;19928;-62
2022/11/19 02:05:16;;;;;;;;;;;;;;;;;;5036552;28;20110;-61
2022/11/19 02:07:42;;;;;;;;;;;;;;;;;;5038749;28;19927;-61
2022/11/19 02:10:09;;;;;;;;;;;;;;;;;;5037798;28;20126;-61
2022/11/19 02:12:43;;;;;;;;;;;;;;;;;;5054780;28;19935;-61
2022/11/19 02:15:11;;;;;;;;;;;;;;;;;;5038802;28;20375;-60
2022/11/19 02:17:56;;;;;;;;;;;;;;;;;;5037488;28;19965;-63
2022/11/19 02:20:24;;;;;;;;;;;;;;;;;;5054924;28;20375;-61
2022/11/19 02:23:09;;;;;;;;;;;;;;;;;;5052454;28;19924;-61
2022/11/19 02:25:34;;;;;;;;;;;;;;;;;;5054239;28;19931;-61
2022/11/19 02:28:00;;;;;;;;;;;;;;;;;;5037373;28;20017;-61
2022/11/19 02:30:43;;;;;;;;;;;;;;;;;;5054341;28;20407;-62
2022/11/19 02:33:10;;;;;;;;;;;;;;;;;;5036648;28;20304;-61
2022/11/19 02:35:36;;;;;;;;;;;;;;;;;;5021472;28;19924;-60
2022/11/19 02:38:01;;;;;;;;;;;;;;;;;;5036425;28;19930;-61
2022/11/19 02:40:29;;;;;;;;;;;;;;;;;;5038038;28;20120;-61
2022/11/19 02:42:55;;;;;;;;;;;;;;;;;;5039886;28;20556;-61
2022/11/19 02:45:20;;;;;;;;;;;;;;;;;;5040957;28;20583;-60
2022/11/19 02:47:48;;;;;;;;;;;;;;;;;;5054625;28;20941;-61
2022/11/19 02:50:16;;;;;;;;;;;;;;;;;;5054152;28;19923;-61
2022/11/19 02:52:41;;;;;;;;;;;;;;;;;;5053427;28;19927;-60
2022/11/19 02:55:06;;;;;;;;;;;;;;;;;;5034978;28;19920;-60
2022/11/19 02:57:31;;;;;;;;;;;;;;;;;;5034951;28;20434;-60
2022/11/19 03:05:43;;;;;;;;;;;;;;;;;;4980763;28;20490;-60
2022/11/19 03:08:08;;;;;;;;;;;;;;;;;;5039492;28;19921;-60
2022/11/19 03:10:33;;;;;;;;;;;;;;;;;;5024201;28;20381;-60
2022/11/19 03:16:40;;;;;;;;;;;;;;;;;;5034777;28;19945;-60
2022/11/19 03:18:28;;;;;;;;;;;;;;;;;;5054831;28;19919;-60
2022/11/19 03:20:53;;;;;;;;;;;;;;;;;;5053858;28;20041;-61
2022/11/19 03:23:19;;;;;;;;;;;;;;;;;;5052437;28;19924;-60
2022/11/19 03:25:44;;;;;;;;;;;;;;;;;;5033840;28;19916;-60
2022/11/19 03:28:12;;;;;;;;;;;;;;;;;;5052675;28;19923;-61
2022/11/19 03:30:37;;;;;;;;;;;;;;;;;;5053291;28;19920;-60
2022/11/19 03:33:02;;;;;;;;;;;;;;;;;;5035806;28;19916;-60
2022/11/19 03:35:30;;;;;;;;;;;;;;;;;;5035136;28;19915;-60
2022/11/19 03:37:55;;;;;;;;;;;;;;;;;;5055800;28;20076;-61
2022/11/19 03:40:23;;;;;;;;;;;;;;;;;;5035992;28;20364;-60
2022/11/19 03:42:49;;;;;;;;;;;;;;;;;;5029687;28;20252;-61
2022/11/19 03:45:14;;;;;;;;;;;;;;;;;;5034166;28;19939;-60
2022/11/19 03:47:41;;;;;;;;;;;;;;;;;;5052981;28;19916;-61
2022/11/19 03:50:09;;;;;;;;;;;;;;;;;;5055574;28;20206;-59
2022/11/19 03:52:36;;;;;;;;;;;;;;;;;;5034008;28;20180;-60
2022/11/19 03:55:04;;;;;;;;;;;;;;;;;;5030579;28;19920;-61
2022/11/19 03:57:30;;;;;;;;;;;;;;;;;;5036755;28;20046;-60
2022/11/19 03:59:55;;;;;;;;;;;;;;;;;;5049989;28;20394;-60
2022/11/19 04:02:21;;;;;;;;;;;;;;;;;;5054731;28;20003;-60
2022/11/19 04:04:46;;;;;;;;;;;;;;;;;;5051105;28;20878;-60
2022/11/19 04:07:13;;;;;;;;;;;;;;;;;;5036310;28;19975;-62
2022/11/19 04:09:39;;;;;;;;;;;;;;;;;;5035615;28;20500;-60
2022/11/19 04:12:07;;;;;;;;;;;;;;;;;;5052965;28;19946;-60
2022/11/19 04:14:33;;;;;;;;;;;;;;;;;;5055965;28;20023;-59
2022/11/19 04:16:58;;;;;;;;;;;;;;;;;;5052594;28;19937;-60
2022/11/19 04:19:26;;;;;;;;;;;;;;;;;;5055466;28;19924;-59
2022/11/19 04:21:51;;;;;;;;;;;;;;;;;;5034893;28;19981;-59
2022/11/19 04:24:16;;;;;;;;;;;;;;;;;;5052804;28;19928;-59
2022/11/19 04:26:44;;;;;;;;;;;;;;;;;;5035447;28;20528;-59
2022/11/19 04:29:12;;;;;;;;;;;;;;;;;;5035232;28;19923;-61
2022/11/19 04:31:38;;;;;;;;;;;;;;;;;;5037466;28;19923;-59
2022/11/19 04:34:03;;;;;;;;;;;;;;;;;;5056871;28;19921;-59
2022/11/19 04:36:29;;;;;;;;;;;;;;;;;;5057413;28;19943;-59
2022/11/19 04:38:59;;;;;;;;;;;;;;;;;;5057916;28;19921;-59
2022/11/19 04:41:29;;;;;;;;;;;;;;;;;;5058297;28;20007;-60
2022/11/19 04:43:59;;;;;;;;;;;;;;;;;;5038517;28;20076;-59
2022/11/19 04:46:27;;;;;;;;;;;;;;;;;;5039436;28;20175;-59
2022/11/19 04:48:58;;;;;;;;;;;;;;;;;;5044085;28;20038;-58
2022/11/19 04:51:23;;;;;;;;;;;;;;;;;;5023929;28;20644;-59
2022/11/19 04:53:48;;;;;;;;;;;;;;;;;;5038802;28;19917;-58
2022/11/19 04:56:14;;;;;;;;;;;;;;;;;;5057486;28;21642;-58
2022/11/19 04:58:39;;;;;;;;;;;;;;;;;;5039667;28;19916;-59
2022/11/19 05:01:04;;;;;;;;;;;;;;;;;;5037634;28;19928;-58
2022/11/19 05:03:32;;;;;;;;;;;;;;;;;;5053112;28;20444;-58
2022/11/19 05:06:03;;;;;;;;;;;;;;;;;;5038188;28;20047;-58
2022/11/19 05:08:33;;;;;;;;;;;;;;;;;;5055931;28;20007;-58
2022/11/19 05:11:01;;;;;;;;;;;;;;;;;;5037788;28;19925;-57
2022/11/19 05:13:26;;;;;;;;;;;;;;;;;;5053269;28;20114;-58
2022/11/19 05:15:52;;;;;;;;;;;;;;;;;;5056847;28;20458;-58
2022/11/19 05:18:17;;;;;;;;;;;;;;;;;;5039004;28;19932;-59
2022/11/19 05:20:43;;;;;;;;;;;;;;;;;;5036550;28;19928;-58
2022/11/19 05:23:11;;;;;;;;;;;;;;;;;;5056271;28;19916;-58
2022/11/19 05:25:37;;;;;;;;;;;;;;;;;;5040937;28;19926;-57
2022/11/19 05:28:05;;;;;;;;;;;;;;;;;;5037732;28;20382;-58
2022/11/19 05:30:33;;;;;;;;;;;;;;;;;;5057881;28;21816;-57
2022/11/19 05:32:58;;;;;;;;;;;;;;;;;;5053966;28;19973;-57
2022/11/19 05:35:24;;;;;;;;;;;;;;;;;;5056060;28;19924;-58
2022/11/19 05:37:49;;;;;;;;;;;;;;;;;;5053825;28;20033;-58
2022/11/19 05:40:17;;;;;;;;;;;;;;;;;;5039367;28;20001;-58
2022/11/19 05:42:42;;;;;;;;;;;;;;;;;;5055125;28;19985;-57
2022/11/19 05:45:08;;;;;;;;;;;;;;;;;;5032841;28;20122;-57
2022/11/19 05:47:33;;;;;;;;;;;;;;;;;;5039267;28;19924;-57
2022/11/19 05:49:59;;;;;;;;;;;;;;;;;;5036485;28;20114;-57
2022/11/19 05:52:29;;;;;;;;;;;;;;;;;;5038998;28;19916;-58
2022/11/19 05:54:57;;;;;;;;;;;;;;;;;;5055794;28;19932;-59
2022/11/19 05:57:24;;;;;;;;;;;;;;;;;;5024051;28;19920;-59
2022/11/19 05:59:50;;;;;;;;;;;;;;;;;;5038028;28;19931;-59
2022/11/19 06:02:15;;;;;;;;;;;;;;;;;;5034828;28;19924;-58
2022/11/19 06:04:43;;;;;;;;;;;;;;;;;;5055340;28;19959;-58
2022/11/19 06:07:08;;;;;;;;;;;;;;;;;;5039442;28;20191;-59
2022/11/19 06:09:33;;;;;;;;;;;;;;;;;;5022247;28;19916;-59
2022/11/19 06:11:59;;;;;;;;;;;;;;;;;;5037604;28;19920;-59
2022/11/19 06:14:24;;;;;;;;;;;;;;;;;;5034211;28;19916;-58
2022/11/19 06:16:50;;;;;;;;;;;;;;;;;;5055398;28;19920;-59
2022/11/19 06:19:15;;;;;;;;;;;;;;;;;;5056730;28;19977;-58
2022/11/19 06:21:41;;;;;;;;;;;;;;;;;;5056034;28;20612;-58
2022/11/19 06:24:06;;;;;;;;;;;;;;;;;;5035270;28;19928;-59
2022/11/19 06:26:37;;;;;;;;;;;;;;;;;;5038175;28;20436;-58
2022/11/19 06:29:04;;;;;;;;;;;;;;;;;;5055788;28;20502;-57
2022/11/19 06:31:30;;;;;;;;;;;;;;;;;;5037613;28;21467;-58
2022/11/19 06:34:00;;;;;;;;;;;;;;;;;;5038017;28;20058;-60
2022/11/19 06:36:25;;;;;;;;;;;;;;;;;;5037387;28;22222;-58
2022/11/19 06:38:51;;;;;;;;;;;;;;;;;;5052006;28;19922;-59
2022/11/19 06:41:17;;;;;;;;;;;;;;;;;;5035895;28;20602;-59
2022/11/19 06:43:42;;;;;;;;;;;;;;;;;;5036154;28;19931;-59
2022/11/19 06:46:08;;;;;;;;;;;;;;;;;;5035646;28;19920;-58
2022/11/19 06:48:33;;;;;;;;;;;;;;;;;;5036678;28;19920;-58
2022/11/19 06:51:01;;;;;;;;;;;;;;;;;;5053210;28;20996;-59
2022/11/19 06:53:27;;;;;;;;;;;;;;;;;;5054444;28;19935;-59
2022/11/19 06:55:53;;;;;;;;;;;;;;;;;;5037258;28;20226;-60
2022/11/19 06:58:18;;;;;;;;;;;;;;;;;;5021377;28;19916;-58
2022/11/19 07:00:45;;;;;;;;;;;;;;;;;;5020654;28;20087;-58
2022/11/19 07:03:11;;;;;;;;;;;;;;;;;;5032303;28;20608;-59
2022/11/19 07:05:36;;;;;;;;;;;;;;;;;;5031401;28;19935;-58
2022/11/19 07:08:03;;;;;;;;;;;;;;;;;;5033906;28;20893;-58
2022/11/19 07:10:29;;;;;;;;;;;;;;;;;;5021314;28;19923;-59
2022/11/19 07:12:56;;;;;;;;;;;;;;;;;;5033647;28;19920;-60
2022/11/19 07:15:21;;;;;;;;;;;;;;;;;;5033198;28;20015;-59
2022/11/19 07:17:49;;;;;;;;;;;;;;;;;;5034936;28;19928;-60
2022/11/19 07:20:17;;;;;;;;;;;;;;;;;;5022349;28;20371;-60
2022/11/19 07:22:42;;;;;;;;;;;;;;;;;;5034453;28;20417;-60
2022/11/19 07:25:07;;;;;;;;;;;;;;;;;;5031166;28;19921;-60
2022/11/19 07:27:35;;;;;;;;;;;;;;;;;;5035335;28;19920;-58
2022/11/19 07:30:01;;;;;;;;;;;;;;;;;;5032415;28;19927;-60
2022/11/19 07:32:27;;;;;;;;;;;;;;;;;;5032704;28;19924;-59
2022/11/19 07:34:52;;;;;;;;;;;;;;;;;;5035832;28;19943;-59
2022/11/19 07:37:18;;;;;;;;;;;;;;;;;;5034202;28;20035;-59
2022/11/19 07:39:45;;;;;;;;;;;;;;;;;;5016856;28;20016;-59
2022/11/19 07:44:58;;;;;;;;;;;;;;;;;;5030638;28;19920;-59
2022/11/19 07:47:23;;;;;;;;;;;;;;;;;;5032833;28;19917;-58
2022/11/19 07:49:48;;;;;;;;;;;;;;;;;;5034454;28;20366;-58
2022/11/19 07:52:14;;;;;;;;;;;;;;;;;;5030719;28;19920;-59
2022/11/19 07:54:41;;;;;;;;;;;;;;;;;;5030884;28;19916;-59
2022/11/19 07:57:10;;;;;;;;;;;;;;;;;;5033472;28;20453;-59
2022/11/19 07:59:37;;;;;;;;;;;;;;;;;;5032556;28;21474;-59
2022/11/19 08:02:02;;;;;;;;;;;;;;;;;;5033376;28;20035;-60
2022/11/19 08:04:30;;;;;;;;;;;;;;;;;;5029509;28;19959;-58
2022/11/19 08:06:55;;;;;;;;;;;;;;;;;;5032999;28;19920;-59
2022/11/19 08:09:25;;;;;;;;;;;;;;;;;;5029437;28;19921;-59
2022/11/19 08:11:51;;;;;;;;;;;;;;;;;;5031677;28;20379;-59
2022/11/19 08:14:19;;;;;;;;;;;;;;;;;;5031726;28;20368;-58
2022/11/19 08:19:30;;;;;;;;;;;;;;;;;;5034878;28;19925;-59
2022/11/19 08:21:58;;;;;;;;;;;;;;;;;;5031502;28;19931;-60
2022/11/19 08:24:23;;;;;;;;;;;;;;;;;;5032444;28;21478;-60
2022/11/19 08:26:51;;;;;;;;;;;;;;;;;;5035025;28;20138;-60
2022/11/19 08:29:19;;;;;;;;;;;;;;;;;;5032579;28;20272;-60
2022/11/19 08:31:46;;;;;;;;;;;;;;;;;;5033709;28;19917;-59
2022/11/19 08:34:16;;;;;;;;;;;;;;;;;;5031063;28;20022;-58
2022/11/19 08:36:42;;;;;;;;;;;;;;;;;;5028961;28;19997;-59
2022/11/19 08:39:12;;;;;;;;;;;;;;;;;;5016847;28;20354;-58
2022/11/19 08:44:21;;;;;;;;;;;;;;;;;;5044779;28;20287;-60
2022/11/19 08:46:49;;;;;;;;;;;;;;;;;;5033318;28;20007;-60
2022/11/19 08:49:17;;;;;;;;;;;;;;;;;;5031702;28;19974;-59
2022/11/19 08:51:42;;;;;;;;;;;;;;;;;;5028765;28;19947;-60
2022/11/19 08:54:07;;;;;;;;;;;;;;;;;;5031211;28;20193;-59
2022/11/19 08:56:32;;;;;;;;;;;;;;;;;;5018487;28;19924;-59
2022/11/19 08:58:58;;;;;;;;;;;;;;;;;;5031915;28;19977;-60
2022/11/19 09:01:26;;;;;;;;;;;;;;;;;;5032936;28;20184;-60
2022/11/19 09:03:54;;;;;;;;;;;;;;;;;;5016896;28;19983;-60
2022/11/19 09:06:19;;;;;;;;;;;;;;;;;;5015795;28;19924;-60
2022/11/19 09:08:47;;;;;;;;;;;;;;;;;;5032490;28;20015;-60
2022/11/19 09:11:13;;;;;;;;;;;;;;;;;;5032011;28;19931;-60
2022/11/19 09:16:57;;;;;;;;;;;;;;;;;;5032480;28;19961;-59
2022/11/19 09:19:27;;;;;;;;;;;;;;;;;;5035216;28;19924;-60
2022/11/19 09:21:52;;;;;;;;;;;;;;;;;;5032082;28;19921;-60
2022/11/19 09:24:17;;;;;;;;;;;;;;;;;;5037173;28;19983;-60
2022/11/19 09:26:43;;;;;;;;;;;;;;;;;;5042109;28;19979;-60
2022/11/19 09:29:10;;;;;;;;;;;;;;;;;;5034188;28;19921;-60
2022/11/19 09:31:38;;;;;;;;;;;;;;;;;;5036919;28;21654;-60
2022/11/19 09:34:06;;;;;;;;;;;;;;;;;;5036991;28;19924;-60
2022/11/19 09:36:31;;;;;;;;;;;;;;;;;;5034046;28;19977;-58
2022/11/19 09:38:56;;;;;;;;;;;;;;;;;;5032044;28;19927;-59
2022/11/19 09:41:22;;;;;;;;;;;;;;;;;;5022423;28;19978;-60
2022/11/19 09:43:49;;;;;;;;;;;;;;;;;;5034228;28;20413;-59
2022/11/19 09:46:17;;;;;;;;;;;;;;;;;;5034610;28;19921;-59
2022/11/19 09:48:44;;;;;;;;;;;;;;;;;;5030898;28;19927;-59
2022/11/19 09:51:09;;;;;;;;;;;;;;;;;;5034379;28;19995;-59
2022/11/19 09:53:40;;;;;;;;;;;;;;;;;;5035587;28;19923;-59
2022/11/19 09:56:07;;;;;;;;;;;;;;;;;;5032618;28;20195;-60
2022/11/19 09:58:33;;;;;;;;;;;;;;;;;;5020650;28;20670;-59
2022/11/19 10:01:01;;;;;;;;;;;;;;;;;;5033868;28;19925;-59
2022/11/19 10:03:27;;;;;;;;;;;;;;;;;;5039119;28;20345;-59
2022/11/19 10:05:57;;;;;;;;;;;;;;;;;;5034507;28;20000;-59
2022/11/19 10:08:23;;;;;;;;;;;;;;;;;;5022471;28;20316;-60
2022/11/19 10:10:50;;;;;;;;;;;;;;;;;;5034515;28;19949;-60
2022/11/19 10:13:15;;;;;;;;;;;;;;;;;;5034360;28;19917;-60
2022/11/19 10:15:41;;;;;;;;;;;;;;;;;;5034860;28;20437;-59
2022/11/19 10:18:09;;;;;;;;;;;;;;;;;;5033521;28;19923;-59
2022/11/19 10:20:36;;;;;;;;;;;;;;;;;;5033047;28;20293;-59
2022/11/19 10:23:04;;;;;;;;;;;;;;;;;;5031794;28;19986;-59
2022/11/19 10:25:32;;;;;;;;;;;;;;;;;;5030900;28;20187;-59
2022/11/19 10:27:59;;;;;;;;;;;;;;;;;;5021763;28;19925;-59
2022/11/19 10:30:26;;;;;;;;;;;;;;;;;;5030521;28;19956;-59
2022/11/19 10:32:51;;;;;;;;;;;;;;;;;;5030781;28;20059;-59
2022/11/19 10:35:17;;;;;;;;;;;;;;;;;;5031816;28;19928;-59
2022/11/19 10:37:45;;;;;;;;;;;;;;;;;;5033526;28;19968;-59
2022/11/19 10:40:13;;;;;;;;;;;;;;;;;;5032691;28;19931;-59
2022/11/19 10:42:41;;;;;;;;;;;;;;;;;;5030427;28;19931;-59
2022/11/19 10:45:06;;;;;;;;;;;;;;;;;;5031412;28;19917;-59
2022/11/19 10:47:34;;;;;;;;;;;;;;;;;;5033827;28;20059;-59
2022/11/19 10:50:00;;;;;;;;;;;;;;;;;;5035687;28;19928;-59
2022/11/19 10:52:26;;;;;;;;;;;;;;;;;;5032684;28;20937;-59
2022/11/19 10:54:51;;;;;;;;;;;;;;;;;;5021129;28;19921;-60
2022/11/19 10:57:18;;;;;;;;;;;;;;;;;;5035205;28;20476;-59
2022/11/19 10:59:46;;;;;;;;;;;;;;;;;;5033458;28;19924;-59
2022/11/19 11:02:12;;;;;;;;;;;;;;;;;;5037191;28;19982;-59
2022/11/19 11:04:37;;;;;;;;;;;;;;;;;;5052065;28;20379;-57
2022/11/19 11:07:02;;;;;;;;;;;;;;;;;;5053642;28;19978;-57
2022/11/19 11:09:28;;;;;;;;;;;;;;;;;;5053344;28;20403;-58
2022/11/19 11:14:53;;;;;;;;;;;;;;;;;;5051912;28;19920;-58
2022/11/19 11:17:21;;;;;;;;;;;;;;;;;;5053797;28;19982;-59
2022/11/19 11:19:46;;;;;;;;;;;;;;;;;;5034466;28;20407;-58
2022/11/19 11:22:11;;;;;;;;;;;;;;;;;;5037993;28;20027;-59
2022/11/19 11:24:36;;;;;;;;;;;;;;;;;;5053028;28;19935;-59
2022/11/19 11:27:01;;;;;;;;;;;;;;;;;;5051897;28;19921;-58
2022/11/19 11:29:27;;;;;;;;;;;;;;;;;;5055388;28;19967;-58
2022/11/19 11:31:54;;;;;;;;;;;;;;;;;;5052333;28;20043;-58
2022/11/19 11:34:20;;;;;;;;;;;;;;;;;;5036697;28;20065;-58
2022/11/19 11:36:45;;;;;;;;;;;;;;;;;;5034141;28;19927;-58
2022/11/19 11:39:11;;;;;;;;;;;;;;;;;;5053567;28;19920;-58
2022/11/19 11:41:38;;;;;;;;;;;;;;;;;;5036177;28;20388;-58
2022/11/19 11:44:04;;;;;;;;;;;;;;;;;;5032938;28;20078;-58
2022/11/19 11:46:29;;;;;;;;;;;;;;;;;;5026822;28;20000;-58
2022/11/19 11:48:54;;;;;;;;;;;;;;;;;;5023220;28;20390;-58
2022/11/19 11:51:22;;;;;;;;;;;;;;;;;;5033686;28;20364;-58
2022/11/19 11:53:47;;;;;;;;;;;;;;;;;;5034252;28;20364;-58
2022/11/19 11:56:12;;;;;;;;;;;;;;;;;;5051559;28;19920;-59
2022/11/19 11:58:38;;;;;;;;;;;;;;;;;;5053412;28;20085;-58
2022/11/19 12:01:04;;;;;;;;;;;;;;;;;;5035893;28;20122;-58
2022/11/19 12:03:31;;;;;;;;;;;;;;;;;;5018704;28;21761;-58
2022/11/19 12:05:56;;;;;;;;;;;;;;;;;;5032595;28;20047;-59
2022/11/19 12:08:21;;;;;;;;;;;;;;;;;;5032035;28;19920;-60
2022/11/19 12:10:49;;;;;;;;;;;;;;;;;;5032250;28;19921;-58
2022/11/19 12:13:14;;;;;;;;;;;;;;;;;;5030464;28;19967;-57
2022/11/19 12:15:42;;;;;;;;;;;;;;;;;;5033288;28;19916;-57
2022/11/19 12:18:10;;;;;;;;;;;;;;;;;;5032472;28;20306;-59
2022/11/19 12:20:35;;;;;;;;;;;;;;;;;;5032896;28;19920;-57
2022/11/19 12:23:03;;;;;;;;;;;;;;;;;;5034101;28;20786;-58
2022/11/19 12:25:31;;;;;;;;;;;;;;;;;;5025316;28;19959;-58
2022/11/19 12:28:01;;;;;;;;;;;;;;;;;;5019534;28;20008;-57
2022/11/19 12:30:31;;;;;;;;;;;;;;;;;;5032078;28;19921;-59
2022/11/19 12:32:59;;;;;;;;;;;;;;;;;;5033533;28;19921;-59
2022/11/19 12:35:41;;;;;;;;;;;;;;;;;;5032853;28;20608;-59
2022/11/19 12:38:10;;;;;;;;;;;;;;;;;;5032729;28;19924;-59
2022/11/19 12:40:35;;;;;;;;;;;;;;;;;;5032381;28;19939;-59
2022/11/19 12:43:02;;;;;;;;;;;;;;;;;;5029952;28;19921;-58
2022/11/19 12:45:29;;;;;;;;;;;;;;;;;;5016278;28;20080;-56
2022/11/19 12:47:54;;;;;;;;;;;;;;;;;;5031789;28;19920;-59
2022/11/19 12:50:19;;;;;;;;;;;;;;;;;;5017329;28;19921;-58
2022/11/19 12:52:45;;;;;;;;;;;;;;;;;;5028003;28;19920;-59
2022/11/19 12:55:10;;;;;;;;;;;;;;;;;;5035926;28;19929;-58
2022/11/19 12:57:36;;;;;;;;;;;;;;;;;;5036404;28;20757;-58
2022/11/19 13:00:01;;;;;;;;;;;;;;;;;;5038713;28;19948;-58
2022/11/19 13:02:31;;;;;;;;;;;;;;;;;;5037303;28;20392;-59
2022/11/19 13:04:56;;;;;;;;;;;;;;;;;;5017986;28;19939;-58
2022/11/19 13:07:24;;;;;;;;;;;;;;;;;;5037013;28;19920;-59
2022/11/19 13:09:50;;;;;;;;;;;;;;;;;;5033339;28;19920;-59
2022/11/19 13:12:20;;;;;;;;;;;;;;;;;;5034805;28;20335;-58
2022/11/19 13:14:45;;;;;;;;;;;;;;;;;;5033783;28;20040;-59
2022/11/19 13:17:13;;;;;;;;;;;;;;;;;;5035227;28;19981;-59
2022/11/19 13:19:41;;;;;;;;;;;;;;;;;;5036431;28;19920;-59
2022/11/19 13:22:08;;;;;;;;;;;;;;;;;;5035478;28;20388;-59
2022/11/19 13:24:36;;;;;;;;;;;;;;;;;;5033704;28;19936;-60
2022/11/19 13:27:04;;;;;;;;;;;;;;;;;;5036875;28;19920;-60
2022/11/19 13:29:34;;;;;;;;;;;;;;;;;;5035721;28;20532;-59
2022/11/19 13:32:02;;;;;;;;;;;;;;;;;;5038078;28;19935;-58
2022/11/19 13:34:29;;;;;;;;;;;;;;;;;;5018573;28;20356;-58
2022/11/19 13:36:59;;;;;;;;;;;;;;;;;;5035434;28;20343;-59
2022/11/19 13:39:24;;;;;;;;;;;;;;;;;;5032871;28;19978;-59
2022/11/19 13:44:42;;;;;;;;;;;;;;;;;;5034444;28;19928;-58
2022/11/19 13:47:10;;;;;;;;;;;;;;;;;;5034360;28;19920;-59
2022/11/19 13:49:39;;;;;;;;;;;;;;;;;;5034639;28;19917;-58
2022/11/19 13:52:07;;;;;;;;;;;;;;;;;;5035512;28;19916;-60
2022/11/19 13:54:32;;;;;;;;;;;;;;;;;;5033523;28;20432;-60
2022/11/19 13:57:00;;;;;;;;;;;;;;;;;;5022064;28;20383;-60
2022/11/19 13:59:28;;;;;;;;;;;;;;;;;;5037765;28;19920;-60
2022/11/19 14:01:54;;;;;;;;;;;;;;;;;;5034208;28;19950;-59
2022/11/19 14:04:19;;;;;;;;;;;;;;;;;;5022699;28;19939;-59
2022/11/19 14:06:45;;;;;;;;;;;;;;;;;;5036337;28;19969;-60
2022/11/19 14:09:10;;;;;;;;;;;;;;;;;;5034101;28;19927;-59
2022/11/19 14:11:38;;;;;;;;;;;;;;;;;;5035012;28;20025;-59
2022/11/19 14:14:05;;;;;;;;;;;;;;;;;;5036920;28;20007;-59
2022/11/19 14:27:16;;;;;;;;;;;;;;;;;;5035305;28;19921;-59
2022/11/19 14:29:42;;;;;;;;;;;;;;;;;;5032757;28;19978;-59
2022/11/19 14:32:07;;;;;;;;;;;;;;;;;;5020633;28;19916;-59
2022/11/19 14:34:32;;;;;;;;;;;;;;;;;;5034808;28;20501;-60
2022/11/19 14:37:00;;;;;;;;;;;;;;;;;;5034410;28;19970;-59
2022/11/19 14:39:25;;;;;;;;;;;;;;;;;;5033111;28;19921;-58
2022/11/19 14:41:54;;;;;;;;;;;;;;;;;;5033739;28;19921;-59
2022/11/19 14:44:19;;;;;;;;;;;;;;;;;;5034973;28;20407;-59
2022/11/19 14:46:47;;;;;;;;;;;;;;;;;;5033376;28;19921;-59
2022/11/19 14:49:17;;;;;;;;;;;;;;;;;;5036939;28;19917;-59
2022/11/19 14:51:45;;;;;;;;;;;;;;;;;;5033142;28;20308;-60
2022/11/19 14:54:13;;;;;;;;;;;;;;;;;;5033388;28;20391;-59
2022/11/19 14:56:41;;;;;;;;;;;;;;;;;;5015054;28;19920;-59
2022/11/19 14:59:08;;;;;;;;;;;;;;;;;;5021867;28;19982;-59
2022/11/19 15:01:34;;;;;;;;;;;;;;;;;;5034479;28;19925;-59
2022/11/19 15:04:01;;;;;;;;;;;;;;;;;;5030554;28;19929;-59
2022/11/19 15:06:27;;;;;;;;;;;;;;;;;;5035765;28;20429;-59
2022/11/19 15:08:52;;;;;;;;;;;;;;;;;;5019279;28;20190;-59
2022/11/19 15:11:20;;;;;;;;;;;;;;;;;;5032648;28;19924;-59
2022/11/19 15:13:46;;;;;;;;;;;;;;;;;;5034161;28;20366;-59
2022/11/19 15:16:13;;;;;;;;;;;;;;;;;;5030234;28;19992;-61
2022/11/19 15:18:44;;;;;;;;;;;;;;;;;;5021314;28;19922;-60
2022/11/19 15:21:11;;;;;;;;;;;;;;;;;;5033488;28;19925;-59
2022/11/19 15:23:39;;;;;;;;;;;;;;;;;;5031275;28;20459;-59
2022/11/19 15:26:05;;;;;;;;;;;;;;;;;;5038045;28;19923;-59
2022/11/19 15:28:31;;;;;;;;;;;;;;;;;;5034031;28;20268;-59
2022/11/19 15:30:56;;;;;;;;;;;;;;;;;;5032887;28;19921;-60
2022/11/19 15:33:23;;;;;;;;;;;;;;;;;;5018840;28;20524;-60
2022/11/19 15:35:49;;;;;;;;;;;;;;;;;;5033130;28;19921;-59
2022/11/19 15:38:17;;;;;;;;;;;;;;;;;;5034259;28;19929;-60
2022/11/19 15:40:43;;;;;;;;;;;;;;;;;;5030534;28;19986;-61
2022/11/19 15:43:08;;;;;;;;;;;;;;;;;;5035492;28;19920;-60
2022/11/19 15:45:34;;;;;;;;;;;;;;;;;;5031058;28;19925;-60
2022/11/19 15:48:01;;;;;;;;;;;;;;;;;;5031943;28;19921;-60
2022/11/19 15:50:31;;;;;;;;;;;;;;;;;;5033994;28;19927;-60
2022/11/19 15:52:57;;;;;;;;;;;;;;;;;;5019750;28;19951;-60
2022/11/19 15:55:25;;;;;;;;;;;;;;;;;;5033444;28;20581;-60
2022/11/19 15:57:51;;;;;;;;;;;;;;;;;;5032876;28;19916;-60
2022/11/19 16:00:16;;;;;;;;;;;;;;;;;;5030479;28;19924;-60
2022/11/19 16:02:42;;;;;;;;;;;;;;;;;;5034080;28;19927;-60
2022/11/19 16:05:07;;;;;;;;;;;;;;;;;;5035749;28;19929;-60
2022/11/19 16:07:35;;;;;;;;;;;;;;;;;;5033587;28;19921;-59
2022/11/19 16:10:00;;;;;;;;;;;;;;;;;;5033613;28;20005;-59
2022/11/19 16:17:54;;;;;;;;;;;;;;;;;;5030288;28;19921;-58
2022/11/19 16:20:23;;;;;;;;;;;;;;;;;;5033689;28;19981;-59
2022/11/19 16:23:10;;;;;;;;;;;;;;;;;;5028008;28;19921;-59
2022/11/19 16:25:35;;;;;;;;;;;;;;;;;;5016111;28;19966;-59
2022/11/19 16:28:06;;;;;;;;;;;;;;;;;;5013086;28;20469;-60
2022/11/19 16:30:35;;;;;;;;;;;;;;;;;;5031722;28;20293;-59
2022/11/19 16:33:02;;;;;;;;;;;;;;;;;;5033192;28;20012;-59
2022/11/19 16:35:28;;;;;;;;;;;;;;;;;;5031039;28;20594;-60
2022/11/19 16:37:53;;;;;;;;;;;;;;;;;;5032047;28;19951;-59
2022/11/19 16:40:18;;;;;;;;;;;;;;;;;;5017439;28;19925;-59
2022/11/19 16:42:44;;;;;;;;;;;;;;;;;;5020094;28;19916;-59
2022/11/19 16:45:14;;;;;;;;;;;;;;;;;;5015384;28;19927;-58
2022/11/19 16:47:40;;;;;;;;;;;;;;;;;;5021009;28;19921;-59
2022/11/19 16:50:07;;;;;;;;;;;;;;;;;;5033119;28;19921;-59
2022/11/19 16:52:35;;;;;;;;;;;;;;;;;;5030898;28;20460;-59
2022/11/19 16:55:03;;;;;;;;;;;;;;;;;;5036886;28;20011;-59
2022/11/19 16:57:31;;;;;;;;;;;;;;;;;;5036708;28;20052;-59
2022/11/19 16:59:56;;;;;;;;;;;;;;;;;;5036007;28;19920;-59
2022/11/19 17:02:22;;;;;;;;;;;;;;;;;;5037731;28;21486;-59
2022/11/19 17:04:52;;;;;;;;;;;;;;;;;;5034757;28;20844;-59
2022/11/19 17:07:19;;;;;;;;;;;;;;;;;;5037669;28;19920;-59
2022/11/19 17:09:46;;;;;;;;;;;;;;;;;;5036601;28;20386;-59
2022/11/19 17:12:17;;;;;;;;;;;;;;;;;;5031622;28;20627;-60
2022/11/19 17:14:42;;;;;;;;;;;;;;;;;;5035934;28;20023;-60
2022/11/19 17:17:07;;;;;;;;;;;;;;;;;;5037074;28;19921;-60
2022/11/19 17:19:33;;;;;;;;;;;;;;;;;;5036520;28;19921;-60
2022/11/19 17:21:58;;;;;;;;;;;;;;;;;;5037208;28;20759;-60
2022/11/19 17:24:24;;;;;;;;;;;;;;;;;;5031552;28;20395;-60